Time;durP1;ratioP1;P1;durP2;ratioP2;P2;SDS_P1;SDS_P2;PMS_P1;PMS_P2;Temp;Humidity;BMP_temperature;BMP_pressure;BME280_temperature;BME280_humidity;BME280_pressure;Samples;Min_cycle;Max_cycle;Signal;HPM_P1;HPM_P2
2023/05/17 00:00:18;;;;;;;0.20;0.20;;;11.80;99.90;;;;;;5033373;28;20571;-78
2023/05/17 00:02:43;;;;;;;0.20;0.20;;;12.00;99.90;;;;;;5034365;28;20687;-77
2023/05/17 00:05:10;;;;;;;0.30;0.30;;;12.00;99.90;;;;;;5034523;28;20643;-79
2023/05/17 00:07:36;;;;;;;0.30;0.30;;;12.00;99.90;;;;;;5034895;28;20620;-78
2023/05/17 00:10:02;;;;;;;0.23;0.23;;;12.00;99.90;;;;;;5034947;28;20173;-77
2023/05/17 00:12:28;;;;;;;0.30;0.30;;;11.90;99.90;;;;;;5016550;28;20181;-80
2023/05/17 00:14:54;;;;;;;0.27;0.27;;;12.00;99.90;;;;;;5033004;28;20185;-78
2023/05/17 00:17:20;;;;;;;0.20;0.20;;;12.00;99.90;;;;;;5034640;28;20179;-79
2023/05/17 00:19:45;;;;;;;0.40;0.40;;;12.00;99.90;;;;;;5034700;28;20329;-77
2023/05/17 00:22:11;;;;;;;0.40;0.20;;;12.00;99.90;;;;;;5034537;28;20175;-78
2023/05/17 00:24:37;;;;;;;0.20;0.20;;;11.90;99.90;;;;;;5033188;28;20177;-79
2023/05/17 00:27:03;;;;;;;0.30;0.30;;;12.10;99.90;;;;;;5033081;28;20186;-78
2023/05/17 00:29:29;;;;;;;0.20;0.20;;;12.10;99.90;;;;;;5033900;28;20182;-77
2023/05/17 00:31:54;;;;;;;0.30;0.30;;;12.10;99.90;;;;;;5040934;28;20177;-79
2023/05/17 00:34:20;;;;;;;0.30;0.30;;;12.10;99.90;;;;;;5034287;28;20318;-77
2023/05/17 00:36:46;;;;;;;0.30;0.30;;;12.10;99.90;;;;;;5034701;28;20799;-78
2023/05/17 00:39:11;;;;;;;0.20;0.20;;;12.00;99.90;;;;;;5034526;28;20225;-79
2023/05/17 00:41:37;;;;;;;0.40;0.40;;;12.00;99.90;;;;;;5034384;28;20269;-78
2023/05/17 00:44:03;;;;;;;0.30;0.30;;;12.00;99.90;;;;;;5034108;28;20643;-80
2023/05/17 00:46:29;;;;;;;0.27;0.27;;;11.90;99.90;;;;;;5033987;28;20282;-78
2023/05/17 00:48:55;;;;;;;0.37;0.37;;;12.00;99.90;;;;;;5034482;28;20190;-78
2023/05/17 00:51:21;;;;;;;0.13;0.13;;;12.00;99.90;;;;;;5034264;28;20234;-79
2023/05/17 00:53:47;;;;;;;0.23;0.23;;;12.00;99.90;;;;;;5034305;28;20175;-79
2023/05/17 00:56:13;;;;;;;0.17;0.17;;;11.90;99.90;;;;;;5035279;28;20177;-80
2023/05/17 00:58:39;;;;;;;0.20;0.20;;;12.10;99.90;;;;;;5036492;28;20172;-79
2023/05/17 01:01:05;;;;;;;0.20;0.20;;;12.10;99.90;;;;;;5036271;28;20181;-78
2023/05/17 01:03:31;;;;;;;0.20;0.20;;;12.10;99.90;;;;;;5033553;28;20179;-79
2023/05/17 01:05:57;;;;;;;0.30;0.30;;;12.10;99.90;;;;;;5033494;28;20189;-79
2023/05/17 01:08:23;;;;;;;0.20;0.20;;;12.00;99.90;;;;;;5033557;28;20751;-78
2023/05/17 01:11:31;;;;;;;0.20;0.20;;;12.10;99.90;;;;;;5033725;28;20176;-78
2023/05/17 01:14:34;;;;;;;0.20;0.20;;;12.10;99.90;;;;;;5027932;28;20190;-77
2023/05/17 01:17:17;;;;;;;0.17;0.17;;;12.10;99.90;;;;;;5033187;28;20194;-77
2023/05/17 01:19:58;;;;;;;0.20;0.20;;;12.00;99.90;;;;;;5033883;28;20565;-78
2023/05/17 01:22:27;;;;;;;0.13;0.13;;;12.00;99.90;;;;;;5033368;28;20160;-77
2023/05/17 01:25:12;;;;;;;0.20;0.20;;;12.00;99.90;;;;;;5031877;28;20210;-78
2023/05/17 01:27:42;;;;;;;0.20;0.20;;;12.00;99.90;;;;;;5033119;28;20172;-77
2023/05/17 01:30:12;;;;;;;0.17;0.17;;;12.00;99.90;;;;;;5033239;28;20259;-77
2023/05/17 01:32:40;;;;;;;0.30;0.30;;;12.10;99.90;;;;;;5033549;28;20765;-77
2023/05/17 01:35:06;;;;;;;0.20;0.20;;;12.20;99.90;;;;;;5033034;28;20643;-78
2023/05/17 01:37:32;;;;;;;0.20;0.20;;;12.20;99.90;;;;;;5033171;28;20180;-78
2023/05/17 01:39:58;;;;;;;0.37;0.37;;;12.20;99.90;;;;;;5033216;28;20702;-78
2023/05/17 01:42:30;;;;;;;0.20;0.20;;;12.30;99.90;;;;;;5033064;28;20226;-81
2023/05/17 01:45:05;;;;;;;0.57;0.20;;;12.30;99.90;;;;;;5033186;28;20196;-81
2023/05/17 01:47:56;;;;;;;0.30;0.30;;;12.40;99.90;;;;;;5034758;28;20245;-79
2023/05/17 01:50:25;;;;;;;0.10;0.10;;;12.40;99.90;;;;;;5036722;28;20186;-80
2023/05/17 01:53:06;;;;;;;0.20;0.20;;;12.40;99.90;;;;;;5033740;28;20660;-80
2023/05/17 01:55:48;;;;;;;0.30;0.30;;;12.30;99.90;;;;;;5031835;28;20705;-78
2023/05/17 01:58:15;;;;;;;0.20;0.20;;;12.40;99.90;;;;;;5033467;28;20635;-79
2023/05/17 02:00:45;;;;;;;0.20;0.20;;;12.40;99.90;;;;;;5033873;28;20230;-80
2023/05/17 02:03:20;;;;;;;0.20;0.20;;;12.40;99.90;;;;;;5033328;28;20249;-79
2023/05/17 02:05:46;;;;;;;0.20;0.20;;;12.50;99.90;;;;;;5032948;28;20503;-79
2023/05/17 02:08:12;;;;;;;0.17;0.17;;;12.50;99.90;;;;;;5033428;28;20223;-81
2023/05/17 02:10:38;;;;;;;0.23;0.23;;;12.60;99.90;;;;;;5034086;28;20201;-81
2023/05/17 02:13:04;;;;;;;0.30;0.30;;;12.60;99.90;;;;;;5034215;28;20600;-82
2023/05/17 02:15:30;;;;;;;0.20;0.20;;;12.60;99.90;;;;;;5033757;28;20172;-80
2023/05/17 02:17:56;;;;;;;0.33;0.33;;;12.60;99.90;;;;;;5034598;28;20168;-79
2023/05/17 02:20:22;;;;;;;0.10;0.10;;;12.60;99.90;;;;;;5038330;28;20264;-80
2023/05/17 02:22:48;;;;;;;0.20;0.20;;;12.70;99.90;;;;;;5043979;28;20176;-78
2023/05/17 02:25:13;;;;;;;0.13;0.13;;;12.60;99.90;;;;;;5046056;28;20754;-78
2023/05/17 02:27:39;;;;;;;0.27;0.27;;;12.60;99.90;;;;;;5036987;28;20179;-79
2023/05/17 02:30:06;;;;;;;0.20;0.20;;;12.50;99.90;;;;;;5032691;28;20187;-80
2023/05/17 02:32:32;;;;;;;0.20;0.20;;;12.60;99.90;;;;;;5031278;28;20176;-79
2023/05/17 02:34:58;;;;;;;0.30;0.30;;;12.50;99.90;;;;;;5034114;28;20197;-78
2023/05/17 02:37:24;;;;;;;0.30;0.30;;;12.60;99.90;;;;;;5036273;28;20652;-78
2023/05/17 02:39:50;;;;;;;0.20;0.20;;;12.60;99.90;;;;;;5036439;28;20203;-81
2023/05/17 02:42:16;;;;;;;0.30;0.30;;;12.70;99.90;;;;;;5036336;28;20682;-79
2023/05/17 02:44:42;;;;;;;0.30;0.30;;;12.70;99.90;;;;;;5036299;28;20179;-80
2023/05/17 02:47:08;;;;;;;0.20;0.20;;;12.70;99.90;;;;;;5035826;28;20176;-81
2023/05/17 02:49:33;;;;;;;0.20;0.20;;;12.70;99.90;;;;;;5036259;28;20922;-80
2023/05/17 02:51:59;;;;;;;0.20;0.20;;;12.70;99.90;;;;;;5036245;28;20664;-80
2023/05/17 02:54:25;;;;;;;0.20;0.20;;;12.70;99.90;;;;;;5036011;28;20215;-79
2023/05/17 02:56:51;;;;;;;0.20;0.20;;;12.70;99.90;;;;;;5035731;28;20181;-79
2023/05/17 02:59:17;;;;;;;0.20;0.20;;;12.80;99.90;;;;;;5036147;28;20214;-81
2023/05/17 03:01:42;;;;;;;0.30;0.30;;;12.80;99.90;;;;;;5036403;28;20680;-80
2023/05/17 03:04:08;;;;;;;0.20;0.20;;;12.80;99.90;;;;;;5043235;28;20180;-81
2023/05/17 03:06:34;;;;;;;0.20;0.20;;;12.80;99.90;;;;;;5039566;28;20175;-80
2023/05/17 03:08:59;;;;;;;0.10;0.10;;;12.80;99.90;;;;;;5036574;28;20224;-80
2023/05/17 03:11:25;;;;;;;0.20;0.20;;;12.80;99.90;;;;;;5042257;28;20154;-80
2023/05/17 03:13:52;;;;;;;0.20;0.20;;;12.80;99.90;;;;;;5039456;28;20232;-81
2023/05/17 03:16:18;;;;;;;0.20;0.20;;;12.70;99.90;;;;;;5037578;28;20623;-82
2023/05/17 03:18:44;;;;;;;0.20;0.20;;;12.60;99.90;;;;;;5036868;28;20244;-81
2023/05/17 03:21:09;;;;;;;1.70;0.30;;;12.60;99.90;;;;;;5038718;28;20200;-80
2023/05/17 03:23:35;;;;;;;0.13;0.13;;;12.70;99.90;;;;;;5041022;28;20629;-81
2023/05/17 03:26:01;;;;;;;0.20;0.20;;;12.60;99.90;;;;;;5036199;28;20226;-78
2023/05/17 03:28:27;;;;;;;0.30;0.30;;;12.60;99.90;;;;;;5036414;28;20231;-78
2023/05/17 03:30:53;;;;;;;0.30;0.30;;;12.60;99.90;;;;;;5036659;28;20640;-80
2023/05/17 03:33:18;;;;;;;0.20;0.20;;;12.60;99.90;;;;;;5036828;28;20656;-80
2023/05/17 03:35:48;;;;;;;1.20;0.20;;;12.60;99.90;;;;;;5037430;28;20178;-82
2023/05/17 03:38:14;;;;;;;0.30;0.30;;;12.60;99.90;;;;;;5038085;28;20677;-80
2023/05/17 03:40:40;;;;;;;0.20;0.20;;;12.60;99.90;;;;;;5037732;28;20200;-81
2023/05/17 03:43:06;;;;;;;0.13;0.13;;;12.60;99.90;;;;;;5037476;28;20188;-80
2023/05/17 03:45:32;;;;;;;0.23;0.23;;;12.60;99.90;;;;;;5043611;28;20179;-78
2023/05/17 03:47:59;;;;;;;0.40;0.40;;;12.60;99.90;;;;;;5050105;28;20206;-78
2023/05/17 03:50:24;;;;;;;0.10;0.10;;;12.70;99.90;;;;;;5046467;28;20173;-82
2023/05/17 03:52:50;;;;;;;0.10;0.10;;;12.60;99.90;;;;;;5037706;28;20817;-81
2023/05/17 03:55:16;;;;;;;0.20;0.20;;;12.60;99.90;;;;;;5034951;28;20640;-82
2023/05/17 03:57:42;;;;;;;1.23;0.30;;;12.60;99.90;;;;;;5035250;28;20182;-80
2023/05/17 04:00:10;;;;;;;0.20;0.20;;;12.60;99.90;;;;;;5034922;28;20209;-81
2023/05/17 04:02:36;;;;;;;0.20;0.13;;;12.60;99.90;;;;;;5035112;28;20181;-82
2023/05/17 04:05:02;;;;;;;0.30;0.30;;;12.70;99.90;;;;;;5036125;28;20185;-79
2023/05/17 04:07:28;;;;;;;0.30;0.30;;;12.80;99.90;;;;;;5034589;28;20190;-81
2023/05/17 04:10:01;;;;;;;0.30;0.30;;;12.80;99.90;;;;;;5035274;28;20172;-81
2023/05/17 04:12:27;;;;;;;0.30;0.30;;;12.80;99.90;;;;;;5035155;28;20169;-80
2023/05/17 04:14:53;;;;;;;0.10;0.10;;;12.80;99.90;;;;;;5035130;28;20229;-79
2023/05/17 04:17:18;;;;;;;0.20;0.20;;;12.80;99.90;;;;;;5035099;28;20178;-81
2023/05/17 04:19:44;;;;;;;0.10;0.10;;;12.80;99.90;;;;;;5051906;28;20214;-81
2023/05/17 04:22:10;;;;;;;0.30;0.20;;;12.90;99.90;;;;;;5034473;28;20183;-79
2023/05/17 04:24:36;;;;;;;0.17;0.17;;;12.90;99.90;;;;;;5034637;28;20168;-82
2023/05/17 04:27:03;;;;;;;0.53;0.30;;;12.90;99.90;;;;;;5034485;28;20204;-81
2023/05/17 04:29:29;;;;;;;0.40;0.30;;;13.00;99.90;;;;;;5034509;28;20233;-81
2023/05/17 04:31:55;;;;;;;0.30;0.30;;;13.00;99.90;;;;;;5034810;28;20169;-81
2023/05/17 04:34:23;;;;;;;0.20;0.20;;;13.00;99.90;;;;;;5034931;28;20190;-81
2023/05/17 04:36:49;;;;;;;0.20;0.20;;;13.10;99.90;;;;;;5034446;28;20172;-80
2023/05/17 04:39:16;;;;;;;0.20;0.20;;;13.00;99.90;;;;;;5035190;28;20212;-78
2023/05/17 04:41:42;;;;;;;0.10;0.10;;;13.10;99.90;;;;;;5034150;28;20176;-81
2023/05/17 04:44:08;;;;;;;0.13;0.13;;;13.10;99.90;;;;;;5034401;28;20187;-80
2023/05/17 04:46:34;;;;;;;0.10;0.10;;;13.20;99.90;;;;;;5039189;28;20186;-79
2023/05/17 04:49:00;;;;;;;0.20;0.20;;;13.20;99.90;;;;;;5034420;28;20537;-80
2023/05/17 04:51:26;;;;;;;0.20;0.20;;;13.20;99.90;;;;;;5034631;28;20642;-78
2023/05/17 04:53:52;;;;;;;0.30;0.30;;;13.20;99.90;;;;;;5043363;28;20186;-77
2023/05/17 04:56:17;;;;;;;0.30;0.30;;;13.30;99.90;;;;;;5041350;28;20216;-80
2023/05/17 04:58:43;;;;;;;0.47;0.20;;;13.30;99.90;;;;;;5039834;28;20259;-80
2023/05/17 05:01:09;;;;;;;0.10;0.10;;;13.30;99.90;;;;;;5035231;28;20184;-79
2023/05/17 05:03:35;;;;;;;0.10;0.10;;;13.30;99.90;;;;;;5034771;28;20177;-83
2023/05/17 05:06:02;;;;;;;0.40;0.27;;;13.30;99.90;;;;;;5035835;28;20282;-81
2023/05/17 05:08:28;;;;;;;0.30;0.30;;;13.30;99.90;;;;;;5035593;28;20224;-79
2023/05/17 05:10:55;;;;;;;0.13;0.13;;;13.40;99.90;;;;;;5044375;28;20181;-76
2023/05/17 05:13:21;;;;;;;0.20;0.20;;;13.40;99.90;;;;;;5046778;28;20196;-80
2023/05/17 05:15:47;;;;;;;0.40;0.40;;;13.40;99.90;;;;;;5037627;28;20267;-79
2023/05/17 05:18:13;;;;;;;0.20;0.20;;;13.40;99.90;;;;;;5033501;28;20264;-81
2023/05/17 05:20:38;;;;;;;0.23;0.23;;;13.50;99.90;;;;;;5033200;28;20212;-80
2023/05/17 05:23:07;;;;;;;0.10;0.10;;;13.60;99.90;;;;;;5033362;28;20624;-80
2023/05/17 05:25:34;;;;;;;0.20;0.20;;;13.60;99.90;;;;;;5033300;28;20841;-79
2023/05/17 05:27:59;;;;;;;0.30;0.30;;;13.60;99.90;;;;;;5032891;28;20270;-79
2023/05/17 05:30:25;;;;;;;0.20;0.20;;;13.60;99.90;;;;;;5033097;28;20255;-80
2023/05/17 05:32:51;;;;;;;0.70;0.50;;;13.70;99.90;;;;;;5033714;28;20176;-81
2023/05/17 05:35:17;;;;;;;4.57;1.20;;;13.40;99.90;;;;;;5034489;28;20204;-79
2023/05/17 05:37:43;;;;;;;0.20;0.20;;;13.70;99.90;;;;;;5040216;28;20207;-79
2023/05/17 05:40:10;;;;;;;0.20;0.20;;;13.70;99.90;;;;;;5033342;28;20208;-80
2023/05/17 05:42:36;;;;;;;0.20;0.20;;;13.70;99.90;;;;;;5033097;28;20306;-79
2023/05/17 05:45:01;;;;;;;0.20;0.20;;;13.70;99.90;;;;;;5033251;28;20267;-81
2023/05/17 05:47:27;;;;;;;0.20;0.17;;;13.70;99.90;;;;;;5033073;28;20176;-81
2023/05/17 05:49:53;;;;;;;0.20;0.20;;;13.70;99.90;;;;;;5031378;28;20234;-80
2023/05/17 05:52:19;;;;;;;0.30;0.30;;;13.70;99.90;;;;;;5033083;28;20177;-81
2023/05/17 05:54:45;;;;;;;0.40;0.40;;;13.60;99.90;;;;;;5033354;28;20321;-81
2023/05/17 05:57:11;;;;;;;0.30;0.30;;;13.70;99.90;;;;;;5032920;28;20259;-82
2023/05/17 05:59:38;;;;;;;0.30;0.30;;;13.70;99.90;;;;;;5032594;28;20196;-80
2023/05/17 06:02:04;;;;;;;0.40;0.40;;;13.70;99.90;;;;;;5033072;28;20209;-80
2023/05/17 06:04:29;;;;;;;0.30;0.30;;;13.70;99.90;;;;;;5033007;28;20253;-79
2023/05/17 06:06:55;;;;;;;0.30;0.30;;;13.70;99.90;;;;;;5033092;28;20171;-81
2023/05/17 06:09:21;;;;;;;0.30;0.30;;;13.50;99.90;;;;;;5032384;28;20228;-80
2023/05/17 06:11:46;;;;;;;0.20;0.20;;;13.80;99.90;;;;;;5033068;28;20548;-77
2023/05/17 06:14:12;;;;;;;1.77;0.60;;;13.70;99.90;;;;;;5033526;28;20183;-79
2023/05/17 06:16:38;;;;;;;0.20;0.20;;;13.70;99.90;;;;;;5031698;28;20169;-79
2023/05/17 06:19:03;;;;;;;5.53;0.90;;;13.70;99.90;;;;;;5033763;28;20196;-81
2023/05/17 06:21:30;;;;;;;0.63;0.60;;;13.70;99.90;;;;;;5044384;28;20225;-80
2023/05/17 06:23:56;;;;;;;0.30;0.30;;;13.70;99.90;;;;;;5034073;28;20168;-79
2023/05/17 06:26:22;;;;;;;0.70;0.40;;;13.80;99.90;;;;;;5032338;28;20184;-79
2023/05/17 06:28:47;;;;;;;0.23;0.23;;;13.80;99.90;;;;;;5033550;28;20260;-77
2023/05/17 06:31:13;;;;;;;0.30;0.30;;;13.80;99.90;;;;;;5036483;28;20172;-78
2023/05/17 06:33:39;;;;;;;1.60;0.20;;;13.90;99.90;;;;;;5037447;28;20200;-78
2023/05/17 06:36:05;;;;;;;1.10;0.20;;;13.70;99.90;;;;;;5044794;28;20195;-78
2023/05/17 06:38:31;;;;;;;0.20;0.20;;;13.70;99.90;;;;;;5040095;28;20168;-79
2023/05/17 06:40:57;;;;;;;0.13;0.13;;;13.70;99.90;;;;;;5034363;28;20220;-80
2023/05/17 06:43:23;;;;;;;0.17;0.10;;;13.70;99.90;;;;;;5032778;28;20170;-79
2023/05/17 06:45:49;;;;;;;0.50;0.47;;;13.80;99.90;;;;;;5032328;28;20242;-80
2023/05/17 06:48:15;;;;;;;0.87;0.40;;;13.80;99.90;;;;;;5032983;28;20268;-78
2023/05/17 06:50:41;;;;;;;1.50;0.30;;;13.80;99.90;;;;;;5032697;28;20219;-81
2023/05/17 06:53:07;;;;;;;0.20;0.20;;;13.80;99.90;;;;;;5037939;28;20183;-80
2023/05/17 06:55:33;;;;;;;0.67;0.30;;;13.80;99.90;;;;;;5034247;28;20180;-80
2023/05/17 06:57:59;;;;;;;0.30;0.30;;;13.90;99.90;;;;;;5033438;28;20184;-78
2023/05/17 07:00:25;;;;;;;0.67;0.10;;;13.90;99.90;;;;;;5032275;28;20220;-79
2023/05/17 07:02:51;;;;;;;0.50;0.50;;;13.90;99.90;;;;;;5032590;28;20180;-79
2023/05/17 07:05:16;;;;;;;0.20;0.20;;;13.90;99.90;;;;;;5034391;28;20306;-79
2023/05/17 07:07:42;;;;;;;0.10;0.10;;;13.90;99.70;;;;;;5033875;28;20712;-79
2023/05/17 07:10:08;;;;;;;0.37;0.20;;;13.90;99.40;;;;;;5032246;28;20617;-79
2023/05/17 07:12:34;;;;;;;0.20;0.20;;;13.90;99.60;;;;;;5030881;28;20196;-78
2023/05/17 07:15:00;;;;;;;0.10;0.10;;;14.00;99.90;;;;;;5032253;28;20309;-80
2023/05/17 07:17:26;;;;;;;0.20;0.20;;;13.90;99.60;;;;;;5032347;28;20263;-78
2023/05/17 07:19:52;;;;;;;0.20;0.20;;;14.00;99.50;;;;;;5034937;28;20220;-77
2023/05/17 07:22:18;;;;;;;0.30;0.30;;;14.00;99.30;;;;;;5034277;28;20176;-77
2023/05/17 07:24:46;;;;;;;0.23;0.23;;;14.00;99.90;;;;;;5036833;28;20180;-80
2023/05/17 07:27:12;;;;;;;0.40;0.40;;;14.10;99.90;;;;;;5039590;28;20231;-78
2023/05/17 07:29:40;;;;;;;0.20;0.20;;;14.20;99.90;;;;;;5037818;28;20518;-79
2023/05/17 07:32:08;;;;;;;0.20;0.20;;;14.10;99.90;;;;;;5036251;28;20176;-78
2023/05/17 07:34:35;;;;;;;0.83;0.50;;;14.10;99.90;;;;;;5036144;28;20225;-78
2023/05/17 07:37:01;;;;;;;0.20;0.20;;;14.20;99.90;;;;;;5036387;28;20175;-79
2023/05/17 07:39:27;;;;;;;0.40;0.40;;;14.10;99.90;;;;;;5036398;28;20247;-78
2023/05/17 07:41:54;;;;;;;0.40;0.40;;;14.20;99.90;;;;;;5035602;28;20208;-79
2023/05/17 07:44:20;;;;;;;0.20;0.20;;;14.20;99.90;;;;;;5036101;28;20178;-80
2023/05/17 07:46:46;;;;;;;0.40;0.40;;;14.20;99.60;;;;;;5035926;28;20184;-80
2023/05/17 07:49:13;;;;;;;0.20;0.20;;;14.10;99.90;;;;;;5035538;28;20180;-79
2023/05/17 07:51:39;;;;;;;0.23;0.23;;;14.10;99.90;;;;;;5036258;28;20202;-82
2023/05/17 07:54:04;;;;;;;0.20;0.20;;;14.10;99.90;;;;;;5036508;28;20230;-80
2023/05/17 07:56:32;;;;;;;0.30;0.30;;;14.00;99.90;;;;;;5037615;28;20180;-79
2023/05/17 07:58:58;;;;;;;0.47;0.47;;;14.10;99.50;;;;;;5039580;28;20204;-78
2023/05/17 08:01:25;;;;;;;0.27;0.27;;;14.10;99.00;;;;;;5046723;28;20222;-78
2023/05/17 08:03:50;;;;;;;0.20;0.20;;;14.10;99.80;;;;;;5048190;28;20211;-77
2023/05/17 08:06:17;;;;;;;0.20;0.20;;;14.30;99.90;;;;;;5039477;28;20175;-80
2023/05/17 08:08:43;;;;;;;0.30;0.30;;;14.30;99.80;;;;;;5043981;28;20311;-78
2023/05/17 08:11:10;;;;;;;0.33;0.33;;;14.20;99.10;;;;;;5039497;28;20175;-76
2023/05/17 08:13:36;;;;;;;0.20;0.20;;;14.20;99.00;;;;;;5034807;28;20168;-81
2023/05/17 08:16:02;;;;;;;0.30;0.30;;;14.20;99.40;;;;;;5034703;28;20233;-81
2023/05/17 08:18:29;;;;;;;0.40;0.37;;;14.20;99.70;;;;;;5035428;28;20270;-83
2023/05/17 08:20:55;;;;;;;0.30;0.30;;;14.20;99.40;;;;;;5034623;28;20688;-81
2023/05/17 08:23:21;;;;;;;1.60;0.50;;;14.20;99.30;;;;;;5033385;28;20182;-81
2023/05/17 08:25:47;;;;;;;0.30;0.30;;;14.20;99.30;;;;;;5034407;28;20536;-81
2023/05/17 08:28:12;;;;;;;0.63;0.63;;;14.10;99.30;;;;;;5034481;28;20243;-80
2023/05/17 08:30:38;;;;;;;0.30;0.30;;;14.30;99.50;;;;;;5034343;28;20184;-80
2023/05/17 08:33:04;;;;;;;0.23;0.23;;;14.20;99.30;;;;;;5033946;28;20595;-80
2023/05/17 08:35:30;;;;;;;0.30;0.30;;;14.20;99.00;;;;;;5033134;28;20206;-81
2023/05/17 08:37:56;;;;;;;0.20;0.20;;;14.20;99.10;;;;;;5033017;28;20180;-80
2023/05/17 08:40:22;;;;;;;0.30;0.30;;;14.30;99.10;;;;;;5035242;28;20626;-81
2023/05/17 08:42:51;;;;;;;0.30;0.30;;;14.20;99.20;;;;;;5034958;28;20169;-82
2023/05/17 08:45:17;;;;;;;0.30;0.30;;;14.30;99.20;;;;;;5035863;28;20180;-80
2023/05/17 08:47:45;;;;;;;0.17;0.17;;;16.20;99.60;;;;;;5035056;28;20171;-79
2023/05/17 08:50:11;;;;;;;0.40;0.40;;;14.20;99.30;;;;;;5033717;28;20181;-79
2023/05/17 08:52:39;;;;;;;0.30;0.30;;;14.20;99.40;;;;;;5034316;28;20175;-79
2023/05/17 08:55:07;;;;;;;2.43;0.70;;;14.10;99.90;;;;;;5033388;28;20546;-80
2023/05/17 08:57:37;;;;;;;0.40;0.40;;;14.10;99.90;;;;;;5036539;28;20220;-78
2023/05/17 09:00:23;;;;;;;0.63;0.63;;;14.00;99.90;;;;;;5032813;28;20204;-79
2023/05/17 09:02:49;;;;;;;0.60;0.50;;;14.00;99.90;;;;;;5033806;28;20171;-77
2023/05/17 09:05:15;;;;;;;0.30;0.30;;;13.90;99.90;;;;;;5033692;28;20548;-77
2023/05/17 09:07:41;;;;;;;0.50;0.40;;;13.90;99.90;;;;;;5034156;28;20257;-78
2023/05/17 09:10:08;;;;;;;0.33;0.33;;;14.00;99.90;;;;;;5035110;28;20160;-79
2023/05/17 09:12:34;;;;;;;0.93;0.30;;;13.90;99.80;;;;;;5033325;28;20553;-78
2023/05/17 09:15:17;;;;;;;0.50;0.50;;;13.90;99.90;;;;;;5035356;28;20195;-82
2023/05/17 09:17:49;;;;;;;0.20;0.20;;;14.00;99.90;;;;;;5035460;28;20170;-81
2023/05/17 09:20:32;;;;;;;0.40;0.40;;;14.00;99.60;;;;;;5035309;28;20861;-79
2023/05/17 09:22:59;;;;;;;0.40;0.40;;;14.00;99.70;;;;;;5035295;28;20156;-79
2023/05/17 09:25:27;;;;;;;0.67;0.50;;;13.90;99.70;;;;;;5041144;28;20188;-81
2023/05/17 09:27:55;;;;;;;0.27;0.27;;;14.20;99.90;;;;;;5043079;28;20186;-81
2023/05/17 09:30:29;;;;;;;0.33;0.33;;;14.10;99.20;;;;;;5025724;28;20181;-83
2023/05/17 09:32:56;;;;;;;0.20;0.20;;;14.00;99.80;;;;;;5040565;28;20169;-79
2023/05/17 09:35:29;;;;;;;0.50;0.50;;;13.90;99.50;;;;;;5035014;28;20259;-81
2023/05/17 09:38:06;;;;;;;0.30;0.30;;;14.00;99.40;;;;;;5034584;28;20235;-81
2023/05/17 09:40:32;;;;;;;0.53;0.50;;;13.90;99.20;;;;;;5034613;28;20245;-81
2023/05/17 09:42:58;;;;;;;0.20;0.20;;;14.10;99.70;;;;;;5045186;28;20176;-81
2023/05/17 09:45:24;;;;;;;0.40;0.40;;;14.00;99.30;;;;;;5036856;28;20516;-80
2023/05/17 09:47:51;;;;;;;0.97;0.40;;;14.00;99.50;;;;;;5035473;28;20180;-81
2023/05/17 09:50:20;;;;;;;2.00;0.47;;;14.00;99.80;;;;;;5034015;28;20196;-78
2023/05/17 09:52:46;;;;;;;0.50;0.50;;;14.00;99.20;;;;;;5034498;28;20191;-81
2023/05/17 09:55:13;;;;;;;0.47;0.47;;;14.00;99.20;;;;;;5033767;28;20180;-76
2023/05/17 09:57:40;;;;;;;0.50;0.50;;;14.00;99.30;;;;;;5034020;28;20629;-78
2023/05/17 10:00:11;;;;;;;2.00;0.40;;;14.10;99.10;;;;;;5036840;28;20202;-79
2023/05/17 10:02:39;;;;;;;0.57;0.57;;;14.00;99.20;;;;;;5035477;28;20573;-78
2023/05/17 10:05:09;;;;;;;2.20;0.60;;;14.10;99.50;;;;;;5035049;28;20168;-80
2023/05/17 10:07:37;;;;;;;0.50;0.50;;;14.10;99.10;;;;;;5033224;28;20177;-79
2023/05/17 10:10:04;;;;;;;0.47;0.40;;;14.10;99.10;;;;;;5033807;28;20171;-83
2023/05/17 10:12:34;;;;;;;1.60;0.50;;;14.10;98.90;;;;;;5033787;28;20180;-79
2023/05/17 10:15:00;;;;;;;0.40;0.40;;;14.20;98.90;;;;;;5033506;28;20159;-83
2023/05/17 10:17:31;;;;;;;0.60;0.40;;;14.10;98.90;;;;;;5034446;28;20192;-81
2023/05/17 10:19:57;;;;;;;0.40;0.40;;;14.20;99.20;;;;;;5033944;28;20663;-80
2023/05/17 10:22:23;;;;;;;0.70;0.70;;;14.30;98.80;;;;;;5032159;28;20180;-80
2023/05/17 10:24:53;;;;;;;0.30;0.30;;;14.30;99.10;;;;;;5031480;28;20173;-81
2023/05/17 10:27:20;;;;;;;1.00;0.70;;;14.20;98.60;;;;;;5031899;28;20191;-84
2023/05/17 10:29:46;;;;;;;3.60;0.40;;;14.30;98.70;;;;;;5033725;28;20689;-82
2023/05/17 10:32:13;;;;;;;0.30;0.30;;;14.20;98.40;;;;;;5032000;28;20267;-80
2023/05/17 10:34:39;;;;;;;0.90;0.57;;;14.20;98.30;;;;;;5033739;28;20166;-82
2023/05/17 10:37:06;;;;;;;0.30;0.30;;;14.30;98.50;;;;;;5033126;28;20177;-81
2023/05/17 10:39:35;;;;;;;0.67;0.43;;;14.30;98.30;;;;;;5033254;28;20212;-82
2023/05/17 10:42:06;;;;;;;0.93;0.70;;;14.10;98.20;;;;;;5034563;28;20184;-82
2023/05/17 10:44:33;;;;;;;0.40;0.40;;;14.20;98.20;;;;;;5038057;28;20601;-79
2023/05/17 10:46:59;;;;;;;0.33;0.33;;;14.20;98.30;;;;;;5034065;28;20176;-78
2023/05/17 10:49:30;;;;;;;0.27;0.27;;;14.20;98.10;;;;;;5039509;28;20172;-76
2023/05/17 10:51:58;;;;;;;0.43;0.43;;;14.10;98.30;;;;;;5046485;28;20176;-78
2023/05/17 10:54:38;;;;;;;0.40;0.40;;;14.20;98.20;;;;;;5041801;28;20206;-78
2023/05/17 10:57:05;;;;;;;0.40;0.40;;;14.20;98.30;;;;;;5035568;28;20176;-77
2023/05/17 10:59:32;;;;;;;0.30;0.30;;;14.20;98.30;;;;;;5036011;28;20242;-80
2023/05/17 11:02:05;;;;;;;0.30;0.30;;;14.20;98.40;;;;;;5034807;28;20580;-79
2023/05/17 11:04:33;;;;;;;0.40;0.40;;;14.20;98.20;;;;;;5039082;28;20509;-80
2023/05/17 11:07:24;;;;;;;0.67;0.50;;;14.00;98.10;;;;;;5042289;28;20172;-76
2023/05/17 11:10:01;;;;;;;0.40;0.40;;;14.00;98.10;;;;;;5041475;28;20227;-82
2023/05/17 11:12:35;;;;;;;0.40;0.40;;;14.00;98.20;;;;;;5036744;28;20176;-81
2023/05/17 11:15:17;;;;;;;0.60;0.53;;;14.00;98.10;;;;;;5036308;28;20157;-83
2023/05/17 11:17:50;;;;;;;0.80;0.80;;;14.00;98.00;;;;;;5050586;28;20167;-80
2023/05/17 11:20:24;;;;;;;1.07;0.40;;;13.90;97.90;;;;;;5041099;28;20200;-82
2023/05/17 11:22:58;;;;;;;0.30;0.30;;;14.00;98.00;;;;;;5036411;28;20242;-82
2023/05/17 11:25:27;;;;;;;0.50;0.50;;;14.00;97.80;;;;;;5035840;28;20533;-83
2023/05/17 11:27:53;;;;;;;0.40;0.30;;;14.00;97.80;;;;;;5035558;28;20196;-81
2023/05/17 11:30:30;;;;;;;0.20;0.20;;;14.00;97.90;;;;;;5035956;28;20189;-81
2023/05/17 11:33:01;;;;;;;0.60;0.60;;;14.10;97.90;;;;;;5036288;28;20163;-80
2023/05/17 11:35:30;;;;;;;0.30;0.30;;;14.20;97.80;;;;;;5035785;28;20200;-79
2023/05/17 11:38:17;;;;;;;0.30;0.30;;;14.20;97.70;;;;;;5038193;28;20223;-81
2023/05/17 11:40:45;;;;;;;0.30;0.30;;;14.10;97.60;;;;;;5037204;28;20204;-80
2023/05/17 11:43:17;;;;;;;0.47;0.47;;;14.20;97.70;;;;;;5036086;28;20173;-78
2023/05/17 11:45:50;;;;;;;0.30;0.30;;;14.20;97.70;;;;;;5035862;28;20640;-81
2023/05/17 11:48:18;;;;;;;0.40;0.40;;;14.00;97.60;;;;;;5036480;28;20256;-79
2023/05/17 11:50:46;;;;;;;0.30;0.30;;;13.90;97.60;;;;;;5035878;28;20628;-80
2023/05/17 11:53:13;;;;;;;0.60;0.60;;;14.00;97.90;;;;;;5036683;28;20251;-79
2023/05/17 11:55:41;;;;;;;0.53;0.40;;;14.00;97.90;;;;;;5034242;28;20203;-81
2023/05/17 11:58:08;;;;;;;0.33;0.33;;;14.10;97.90;;;;;;5036911;28;20203;-82
2023/05/17 12:00:36;;;;;;;1.53;0.50;;;14.00;97.50;;;;;;5038884;28;20618;-80
2023/05/17 12:03:23;;;;;;;0.30;0.30;;;14.10;98.00;;;;;;5036510;28;20190;-83
2023/05/17 12:05:59;;;;;;;0.30;0.30;;;14.10;97.50;;;;;;5036487;28;20214;-80
2023/05/17 12:08:25;;;;;;;0.40;0.40;;;14.10;97.40;;;;;;5035494;28;20274;-84
2023/05/17 12:10:52;;;;;;;0.60;0.60;;;14.10;97.50;;;;;;5036405;28;20184;-82
2023/05/17 12:13:18;;;;;;;0.30;0.17;;;14.00;97.10;;;;;;5036679;28;20599;-82
2023/05/17 12:15:53;;;;;;;0.30;0.30;;;14.00;97.30;;;;;;5042568;28;20168;-80
2023/05/17 12:18:19;;;;;;;0.50;0.50;;;14.00;97.10;;;;;;5048565;28;20195;-79
2023/05/17 12:20:59;;;;;;;0.77;0.70;;;14.10;97.00;;;;;;5037249;28;20338;-82
2023/05/17 12:23:30;;;;;;;0.77;0.50;;;14.00;97.10;;;;;;5036962;28;20672;-82
2023/05/17 12:26:09;;;;;;;0.50;0.40;;;14.10;97.20;;;;;;5035457;28;20153;-81
2023/05/17 12:28:41;;;;;;;0.70;0.70;;;14.20;97.10;;;;;;5035186;28;20176;-82
2023/05/17 12:31:13;;;;;;;0.60;0.60;;;14.20;97.20;;;;;;5035246;28;20179;-81
2023/05/17 12:33:41;;;;;;;0.33;0.33;;;14.10;97.00;;;;;;5036808;28;20183;-80
2023/05/17 12:36:09;;;;;;;0.60;0.60;;;13.90;97.40;;;;;;5043530;28;20177;-82
2023/05/17 12:38:37;;;;;;;0.40;0.40;;;14.00;97.00;;;;;;5035191;28;20203;-81
2023/05/17 12:41:04;;;;;;;0.30;0.30;;;14.00;97.20;;;;;;5045016;28;20206;-81
2023/05/17 12:43:33;;;;;;;0.33;0.33;;;13.90;96.90;;;;;;5042361;28;20168;-80
2023/05/17 12:46:05;;;;;;;0.20;0.20;;;13.70;97.30;;;;;;5034343;28;20176;-83
2023/05/17 12:48:33;;;;;;;0.40;0.40;;;13.70;97.20;;;;;;5034203;28;20176;-82
2023/05/17 12:51:07;;;;;;;0.50;0.50;;;13.50;97.40;;;;;;5035259;28;20172;-79